createdAt,value
2023-03-08T00:02:17.889Z,4.50
2023-03-08T00:04:44.669Z,4.63
2023-03-08T00:07:11.474Z,5.23
2023-03-08T00:09:38.960Z,4.90
2023-03-08T00:12:07.456Z,4.70
2023-03-08T00:14:34.211Z,5.20
2023-03-08T00:17:02.533Z,4.83
2023-03-08T00:19:29.508Z,4.13
2023-03-08T00:21:56.420Z,4.43
2023-03-08T00:24:23.217Z,4.00
2023-03-08T00:26:49.929Z,5.37
2023-03-08T00:29:16.714Z,4.63
2023-03-08T00:31:43.540Z,5.83
2023-03-08T00:34:10.341Z,6.87
2023-03-08T00:36:37.050Z,5.00
2023-03-08T00:39:03.886Z,5.10
2023-03-08T00:41:30.693Z,5.53
2023-03-08T00:43:57.413Z,5.30
2023-03-08T00:46:25.985Z,4.37
2023-03-08T00:48:52.782Z,3.93
2023-03-08T00:51:20.564Z,4.53
2023-03-08T00:53:47.877Z,3.87
2023-03-08T00:56:14.723Z,3.77
2023-03-08T00:58:42.177Z,3.30
2023-03-08T01:01:14.170Z,3.80
2023-03-08T01:03:41.131Z,3.23
2023-03-08T01:06:10.853Z,3.00
2023-03-08T01:08:39.973Z,3.70
2023-03-08T01:11:06.780Z,2.70
2023-03-08T01:13:35.782Z,2.63
2023-03-08T01:16:03.064Z,2.10
2023-03-08T01:18:29.751Z,3.13
2023-03-08T01:21:02.532Z,2.60
2023-03-08T01:23:29.564Z,2.30
2023-03-08T01:26:04.828Z,2.30
2023-03-08T01:28:31.874Z,2.33
2023-03-08T01:31:09.617Z,2.30
2023-03-08T01:33:36.345Z,2.40
2023-03-08T01:36:07.757Z,1.80
2023-03-08T01:38:35.284Z,3.23
2023-03-08T01:41:02.979Z,4.00
2023-03-08T01:43:33.815Z,2.50
2023-03-08T01:46:06.455Z,3.60
2023-03-08T01:48:44.248Z,2.30
2023-03-08T01:51:14.430Z,2.27
2023-03-08T01:53:42.446Z,2.13
2023-03-08T01:56:12.862Z,2.40
2023-03-08T01:58:41.920Z,1.63
2023-03-08T02:01:08.781Z,1.87
2023-03-08T02:03:35.552Z,2.10
2023-03-08T02:06:04.089Z,1.70
2023-03-08T02:08:32.952Z,1.90
2023-03-08T02:11:00.656Z,1.60
2023-03-08T02:13:28.187Z,1.77
2023-03-08T02:15:57.231Z,1.87
2023-03-08T02:18:24.145Z,1.60
2023-03-08T02:20:50.867Z,1.60
2023-03-08T02:23:19.043Z,1.40
2023-03-08T02:25:56.648Z,1.80
2023-03-08T02:28:25.989Z,1.50
2023-03-08T02:30:53.777Z,1.87
2023-03-08T02:33:20.599Z,1.67
2023-03-08T02:35:47.397Z,2.00
2023-03-08T02:38:17.754Z,1.67
2023-03-08T02:40:45.226Z,1.87
2023-03-08T02:43:12.176Z,2.20
2023-03-08T02:45:38.916Z,2.00
2023-03-08T02:48:06.483Z,1.90
2023-03-08T02:50:33.206Z,2.10
2023-03-08T02:52:59.906Z,2.10
2023-03-08T02:55:27.419Z,1.93
2023-03-08T02:57:54.328Z,2.03
2023-03-08T03:00:21.289Z,2.53
2023-03-08T03:02:48.554Z,2.30
2023-03-08T03:05:15.274Z,2.57
2023-03-08T03:07:43.356Z,2.27
2023-03-08T03:10:12.246Z,2.33
2023-03-08T03:12:39.842Z,2.47
2023-03-08T03:15:08.815Z,2.60
2023-03-08T03:17:36.968Z,2.93
2023-03-08T03:20:09.270Z,2.30
2023-03-08T03:22:36.720Z,2.30
2023-03-08T03:25:04.142Z,2.50
2023-03-08T03:27:30.866Z,2.83
2023-03-08T03:29:57.620Z,2.77
2023-03-08T03:32:24.497Z,3.13
2023-03-08T03:34:51.340Z,3.03
2023-03-08T03:37:18.221Z,3.10
2023-03-08T03:39:45.071Z,3.40
2023-03-08T03:42:11.978Z,4.10
2023-03-08T03:44:38.798Z,3.87
2023-03-08T03:47:06.095Z,3.83
2023-03-08T03:49:32.818Z,4.87
2023-03-08T03:51:59.785Z,5.73
2023-03-08T03:54:27.424Z,5.30
2023-03-08T03:56:58.077Z,4.80
2023-03-08T03:59:26.721Z,5.77
2023-03-08T04:01:53.596Z,5.63
2023-03-08T04:04:20.560Z,6.03
2023-03-08T04:06:47.821Z,6.60
2023-03-08T04:09:16.986Z,6.33
2023-03-08T04:11:43.762Z,5.70
2023-03-08T04:14:10.586Z,6.97
2023-03-08T04:16:39.986Z,6.57
2023-03-08T04:19:15.735Z,6.27
2023-03-08T04:21:42.810Z,6.00
2023-03-08T04:24:09.589Z,6.53
2023-03-08T04:26:36.384Z,7.33
2023-03-08T04:29:06.130Z,8.07
2023-03-08T04:31:35.110Z,7.70
2023-03-08T04:34:03.173Z,8.57
2023-03-08T04:36:30.459Z,8.63
2023-03-08T04:38:57.382Z,7.67
2023-03-08T04:41:26.284Z,8.23
2023-03-08T04:43:55.106Z,8.60
2023-03-08T04:46:27.887Z,7.93
2023-03-08T04:48:56.202Z,7.80
2023-03-08T04:51:26.876Z,8.33
2023-03-08T04:53:54.094Z,8.43
2023-03-08T04:56:20.914Z,8.10
2023-03-08T04:58:47.862Z,7.20
2023-03-08T05:01:17.620Z,7.90
2023-03-08T05:03:45.449Z,7.93
2023-03-08T05:06:14.273Z,8.13
2023-03-08T05:08:41.616Z,8.03
2023-03-08T05:11:08.933Z,7.43
2023-03-08T05:13:38.522Z,7.77
2023-03-08T05:16:06.997Z,8.37
2023-03-08T05:18:34.083Z,7.67
2023-03-08T05:21:04.454Z,8.30
2023-03-08T05:23:31.932Z,7.93
2023-03-08T05:26:00.387Z,7.37
2023-03-08T05:28:30.074Z,8.57
2023-03-08T05:31:11.978Z,8.67
2023-03-08T05:33:39.741Z,8.37
2023-03-08T05:36:07.893Z,7.97
2023-03-08T05:38:35.079Z,7.90
2023-03-08T05:41:09.327Z,6.97
2023-03-08T05:43:36.106Z,10.13
2023-03-08T05:46:06.888Z,6.63
2023-03-08T05:48:35.417Z,8.33
2023-03-08T05:51:10.168Z,7.33
2023-03-08T05:53:37.204Z,8.23
2023-03-08T05:56:12.220Z,8.67
2023-03-08T05:58:41.463Z,8.83
2023-03-08T06:01:18.112Z,8.10
2023-03-08T06:03:46.510Z,8.67
2023-03-08T06:06:13.708Z,8.33
2023-03-08T06:08:40.827Z,7.73
2023-03-08T06:11:07.862Z,9.20
2023-03-08T06:13:35.144Z,8.73
2023-03-08T06:16:02.924Z,7.87
2023-03-08T06:18:29.697Z,9.23
2023-03-08T06:21:01.610Z,7.13
2023-03-08T06:23:30.148Z,7.57
2023-03-08T06:25:57.708Z,7.90
2023-03-08T06:28:25.868Z,7.50
2023-03-08T06:30:53.313Z,8.67
2023-03-08T06:33:22.290Z,8.13
2023-03-08T06:35:59.655Z,8.43
2023-03-08T06:38:29.676Z,8.27
2023-03-08T06:40:57.080Z,7.53
2023-03-08T06:43:25.663Z,7.80
2023-03-08T06:45:52.510Z,6.73
2023-03-08T06:48:19.853Z,8.03
2023-03-08T06:50:47.098Z,5.90
2023-03-08T06:53:14.314Z,7.67
2023-03-08T06:55:41.902Z,7.30
2023-03-08T06:58:09.732Z,7.30
2023-03-08T07:00:36.656Z,6.83
2023-03-08T07:03:03.458Z,6.83
2023-03-08T07:05:30.160Z,7.57
2023-03-08T07:07:56.939Z,7.03
2023-03-08T07:10:23.946Z,7.67
2023-03-08T07:12:51.611Z,7.43
2023-03-08T07:15:22.994Z,7.17
2023-03-08T07:17:52.224Z,6.80
2023-03-08T07:20:20.357Z,5.90
2023-03-08T07:22:47.422Z,6.20
2023-03-08T07:25:16.324Z,7.40
2023-03-08T07:27:43.639Z,7.40
2023-03-08T07:30:12.402Z,7.13
2023-03-08T07:32:40.891Z,6.27
2023-03-08T07:35:09.894Z,6.17
2023-03-08T07:37:36.964Z,7.03
2023-03-08T07:40:07.646Z,6.47
2023-03-08T07:42:34.583Z,6.73
2023-03-08T07:45:01.324Z,6.97
2023-03-08T07:47:28.136Z,7.23
2023-03-08T07:49:54.854Z,6.70
2023-03-08T07:52:21.593Z,7.50
2023-03-08T07:54:48.347Z,6.53
2023-03-08T07:57:15.736Z,4.47
2023-03-08T07:59:42.464Z,6.37
2023-03-08T08:02:15.507Z,6.47
2023-03-08T08:04:42.477Z,6.73
2023-03-08T08:07:13.323Z,6.43
2023-03-08T08:09:40.181Z,5.63
2023-03-08T08:12:07.145Z,7.57
2023-03-08T08:14:33.916Z,6.13
2023-03-08T08:17:00.907Z,6.40
2023-03-08T08:19:27.717Z,5.50
2023-03-08T08:21:54.453Z,5.43
2023-03-08T08:24:21.169Z,5.50
2023-03-08T08:26:47.941Z,5.77
2023-03-08T08:29:14.925Z,5.57
2023-03-08T08:31:41.745Z,5.40
2023-03-08T08:34:08.853Z,6.03
2023-03-08T08:36:35.772Z,5.83
2023-03-08T08:39:02.950Z,5.07
2023-03-08T08:41:30.557Z,4.47
2023-03-08T08:43:59.542Z,5.03
2023-03-08T08:46:31.749Z,6.07
2023-03-08T08:48:59.155Z,4.53
2023-03-08T08:51:26.443Z,2.93
2023-03-08T08:53:54.196Z,4.80
2023-03-08T08:56:27.100Z,4.53
2023-03-08T08:59:04.807Z,6.17
2023-03-08T09:01:34.427Z,5.20
2023-03-08T09:04:01.206Z,5.10
2023-03-08T09:06:29.265Z,4.80
2023-03-08T09:08:58.239Z,4.73
2023-03-08T09:11:26.276Z,4.07
2023-03-08T09:13:53.957Z,4.03
2023-03-08T09:16:27.981Z,4.43
2023-03-08T09:18:58.822Z,4.43
2023-03-08T09:21:26.897Z,4.80
2023-03-08T09:23:54.094Z,4.33
2023-03-08T09:26:21.179Z,4.70
2023-03-08T09:28:48.095Z,4.63
2023-03-08T09:31:17.085Z,5.03
2023-03-08T09:33:46.871Z,4.50
2023-03-08T09:36:13.606Z,4.20
2023-03-08T09:38:40.839Z,4.60
2023-03-08T09:41:21.715Z,4.53
2023-03-08T09:44:04.955Z,5.03
2023-03-08T09:46:38.412Z,5.00
2023-03-08T09:49:13.439Z,5.30
2023-03-08T09:51:44.480Z,4.83
2023-03-08T09:54:17.118Z,4.00
2023-03-08T09:56:51.530Z,4.93
2023-03-08T09:59:26.858Z,4.17
2023-03-08T10:01:59.065Z,4.13
2023-03-08T10:05:09.829Z,5.07
2023-03-08T10:07:48.573Z,5.03
2023-03-08T10:10:38.054Z,4.83
2023-03-08T10:13:23.640Z,4.63
2023-03-08T10:15:53.977Z,4.43
2023-03-08T10:18:47.022Z,6.60
2023-03-08T10:21:17.493Z,5.27
2023-03-08T10:23:52.610Z,4.03
2023-03-08T10:26:19.973Z,4.07
2023-03-08T10:28:46.753Z,5.10
2023-03-08T10:31:24.850Z,4.77
2023-03-08T10:33:58.457Z,4.57
2023-03-08T10:36:26.175Z,4.23
2023-03-08T10:39:05.300Z,4.17
2023-03-08T10:41:36.853Z,5.47
2023-03-08T10:44:04.066Z,4.13
2023-03-08T10:46:32.911Z,4.80
2023-03-08T10:49:14.735Z,4.53
2023-03-08T10:51:52.389Z,4.90
2023-03-08T10:54:19.085Z,5.37
2023-03-08T10:56:53.547Z,4.07
2023-03-08T10:59:28.098Z,4.43
2023-03-08T11:02:00.105Z,4.40
2023-03-08T11:04:29.727Z,4.80
2023-03-08T11:06:56.848Z,5.53
2023-03-08T11:09:29.407Z,6.47
2023-03-08T11:11:58.298Z,5.93
2023-03-08T11:14:27.961Z,4.93
2023-03-08T11:17:15.669Z,4.60
2023-03-08T11:20:06.290Z,4.47
2023-03-08T11:23:02.141Z,4.13
2023-03-08T11:25:50.532Z,3.40
2023-03-08T11:28:44.615Z,3.57
2023-03-08T11:31:24.648Z,3.60
2023-03-08T11:34:16.237Z,3.23
2023-03-08T11:37:16.760Z,4.10
2023-03-08T11:39:48.920Z,3.70
2023-03-08T11:42:20.688Z,4.30
2023-03-08T11:45:02.197Z,3.27
2023-03-08T11:47:53.321Z,5.00
2023-03-08T11:50:23.247Z,3.37
2023-03-08T11:53:16.058Z,2.97
2023-03-08T11:56:07.480Z,5.40
2023-03-08T11:58:42.708Z,4.77
2023-03-08T12:01:32.572Z,4.30
2023-03-08T12:04:08.017Z,3.70
2023-03-08T12:06:45.505Z,4.03
2023-03-08T12:09:12.268Z,4.30
2023-03-08T12:11:44.700Z,4.80
2023-03-08T12:14:23.582Z,5.13
2023-03-08T12:16:56.477Z,4.40
2023-03-08T12:19:46.591Z,3.97
2023-03-08T12:22:25.336Z,3.60
2023-03-08T12:24:54.804Z,4.37
2023-03-08T12:27:43.833Z,4.43
2023-03-08T12:30:10.523Z,3.40
2023-03-08T12:32:39.612Z,6.87
2023-03-08T12:35:28.457Z,4.37
2023-03-08T12:38:20.001Z,3.83
2023-03-08T12:40:51.633Z,3.73
2023-03-08T12:43:21.054Z,3.97
2023-03-08T12:46:09.409Z,3.70
2023-03-08T12:48:46.780Z,3.23
2023-03-08T12:51:14.168Z,4.80
2023-03-08T12:53:56.087Z,4.07
2023-03-08T12:56:50.549Z,4.17
2023-03-08T12:59:17.230Z,4.00
2023-03-08T13:01:59.826Z,3.90
2023-03-08T13:04:41.909Z,4.60
2023-03-08T13:07:20.205Z,4.53
2023-03-08T13:10:21.126Z,4.50
2023-03-08T13:13:38.090Z,4.70
2023-03-08T13:16:32.929Z,4.93
2023-03-08T13:19:15.035Z,4.83
2023-03-08T13:22:00.410Z,4.90
2023-03-08T13:24:42.079Z,5.53
2023-03-08T13:27:39.483Z,5.03
2023-03-08T13:30:30.692Z,4.77
2023-03-08T13:32:58.439Z,4.80
2023-03-08T13:35:25.400Z,5.17
2023-03-08T13:37:58.952Z,5.03
2023-03-08T13:40:28.114Z,5.03
2023-03-08T13:43:00.462Z,5.33
2023-03-08T13:45:27.618Z,4.67
2023-03-08T13:47:57.308Z,5.60
2023-03-08T13:50:36.837Z,5.37
2023-03-08T13:53:10.112Z,10.90
2023-03-08T13:55:44.264Z,6.17
2023-03-08T13:58:31.075Z,5.20
2023-03-08T14:01:02.111Z,4.80
2023-03-08T14:03:31.980Z,4.80
2023-03-08T14:05:59.312Z,6.63
2023-03-08T14:08:27.741Z,5.80
2023-03-08T14:11:05.213Z,5.87
2023-03-08T14:13:38.253Z,7.57
2023-03-08T14:16:09.440Z,5.53
2023-03-08T14:18:39.279Z,5.70
2023-03-08T14:21:14.525Z,6.00
2023-03-08T14:23:46.014Z,4.73
2023-03-08T14:26:38.192Z,5.90
2023-03-08T14:29:13.068Z,5.87
2023-03-08T14:31:51.798Z,6.67
2023-03-08T14:34:21.696Z,5.20
2023-03-08T14:37:00.543Z,5.27
2023-03-08T14:39:29.498Z,4.83
2023-03-08T14:41:56.723Z,5.23
2023-03-08T14:44:28.236Z,5.60
2023-03-08T14:46:58.751Z,4.93
2023-03-08T14:49:28.543Z,5.40
2023-03-08T14:51:55.923Z,5.10
2023-03-08T14:54:38.503Z,4.37
2023-03-08T14:57:28.510Z,5.50
2023-03-08T15:00:07.671Z,5.00
2023-03-08T15:02:35.607Z,4.50
2023-03-08T15:05:02.685Z,4.60
2023-03-08T15:07:33.877Z,4.77
2023-03-08T15:10:02.752Z,6.00
2023-03-08T15:12:29.472Z,5.60
2023-03-08T15:14:56.177Z,5.60
2023-03-08T15:17:22.960Z,5.30
2023-03-08T15:19:49.792Z,6.23
2023-03-08T15:22:17.427Z,5.97
2023-03-08T15:24:44.137Z,4.63
2023-03-08T15:27:15.815Z,5.97
2023-03-08T15:29:42.526Z,5.27
2023-03-08T15:32:09.286Z,5.50
2023-03-08T15:34:36.127Z,5.53
2023-03-08T15:37:02.924Z,5.73
2023-03-08T15:39:29.856Z,6.27
2023-03-08T15:41:56.556Z,5.73
2023-03-08T15:44:23.295Z,5.83
2023-03-08T15:46:52.604Z,5.30
2023-03-08T15:49:19.659Z,5.87
2023-03-08T15:51:46.390Z,6.87
2023-03-08T15:54:13.198Z,6.30
2023-03-08T15:56:39.986Z,6.93
2023-03-08T15:59:06.811Z,6.90
2023-03-08T16:01:33.549Z,7.67
2023-03-08T16:04:00.406Z,6.83
2023-03-08T16:06:27.328Z,7.53
2023-03-08T16:08:54.278Z,7.33
2023-03-08T16:11:22.425Z,8.00
2023-03-08T16:13:51.659Z,9.27
2023-03-08T16:16:19.037Z,8.07
2023-03-08T16:18:46.073Z,9.13
2023-03-08T16:21:12.886Z,7.07
2023-03-08T16:23:41.661Z,8.27
2023-03-08T16:26:17.881Z,7.80
2023-03-08T16:28:46.934Z,8.50
2023-03-08T16:31:15.482Z,9.30
2023-03-08T16:33:42.630Z,10.07
2023-03-08T16:36:10.683Z,7.87
2023-03-08T16:38:37.550Z,9.00
2023-03-08T16:41:13.903Z,10.20
2023-03-08T16:43:47.669Z,9.63
2023-03-08T16:46:20.424Z,11.27
2023-03-08T16:48:54.283Z,10.77
2023-03-08T16:51:23.048Z,11.03
2023-03-08T16:53:49.914Z,11.97
2023-03-08T16:56:24.987Z,11.97
2023-03-08T16:58:53.184Z,13.23
2023-03-08T17:01:21.090Z,13.97
2023-03-08T17:03:48.024Z,14.57
2023-03-08T17:06:17.090Z,13.30
2023-03-08T17:08:43.816Z,16.27
2023-03-08T17:11:19.516Z,14.87
2023-03-08T17:13:51.082Z,15.97
2023-03-08T17:16:20.480Z,16.30
2023-03-08T17:18:48.478Z,13.50
2023-03-08T17:21:15.710Z,17.20
2023-03-08T17:23:42.768Z,13.83
2023-03-08T17:26:11.347Z,12.97
2023-03-08T17:28:39.110Z,16.07
2023-03-08T17:31:14.348Z,16.20
2023-03-08T17:33:41.924Z,20.57
2023-03-08T17:36:09.917Z,15.17
2023-03-08T17:38:37.009Z,15.20
2023-03-08T17:41:08.828Z,17.13
2023-03-08T17:43:35.617Z,21.17
2023-03-08T17:46:05.418Z,20.43
2023-03-08T17:48:33.169Z,19.17
2023-03-08T17:51:12.266Z,15.90
2023-03-08T17:53:39.946Z,15.73
2023-03-08T17:56:09.196Z,14.10
2023-03-08T17:58:36.851Z,12.93
2023-03-08T18:01:30.737Z,13.67
2023-03-08T18:03:58.045Z,13.00
2023-03-08T18:06:34.832Z,13.37
2023-03-08T18:09:08.713Z,14.43
2023-03-08T18:11:37.785Z,14.00
2023-03-08T18:14:06.174Z,16.30
2023-03-08T18:16:33.594Z,15.70
2023-03-08T18:19:02.466Z,14.00
2023-03-08T18:21:31.442Z,15.70
2023-03-08T18:23:58.823Z,18.13
2023-03-08T18:26:25.885Z,14.60
2023-03-08T18:28:52.691Z,11.80
2023-03-08T18:31:23.392Z,12.27
2023-03-08T18:33:50.324Z,12.40
2023-03-08T18:36:18.044Z,14.00
2023-03-08T18:38:45.033Z,15.05
2023-03-08T18:41:17.693Z,16.23
2023-03-08T18:43:45.283Z,16.23
2023-03-08T18:46:13.376Z,16.97
2023-03-08T18:48:40.982Z,15.93
2023-03-08T18:51:07.741Z,15.47
2023-03-08T18:53:34.849Z,17.50
2023-03-08T18:56:03.803Z,15.37
2023-03-08T18:58:31.296Z,15.17
2023-03-08T19:00:59.152Z,16.93
2023-03-08T19:03:27.002Z,16.43
2023-03-08T19:05:53.744Z,15.90
2023-03-08T19:08:20.605Z,16.43
2023-03-08T19:10:47.321Z,15.93
2023-03-08T19:13:14.075Z,16.30
2023-03-08T19:15:40.834Z,14.60
2023-03-08T19:18:07.595Z,16.13
2023-03-08T19:20:39.179Z,14.80
2023-03-08T19:23:06.071Z,16.33
2023-03-08T19:25:34.554Z,17.33
2023-03-08T19:28:01.282Z,20.77
2023-03-08T19:30:28.538Z,18.33
2023-03-08T19:32:56.510Z,16.60
2023-03-08T19:35:23.699Z,18.07
2023-03-08T19:37:50.652Z,21.40
2023-03-08T19:40:17.833Z,25.53
2023-03-08T19:42:44.576Z,18.30
2023-03-08T19:45:12.136Z,19.23
2023-03-08T19:47:38.944Z,20.27
2023-03-08T19:50:06.096Z,19.83
2023-03-08T19:52:33.062Z,26.53
2023-03-08T19:54:59.860Z,23.50
2023-03-08T19:57:26.844Z,20.37
2023-03-08T19:59:53.652Z,22.23
2023-03-08T20:02:20.337Z,23.93
2023-03-08T20:04:47.173Z,23.97
2023-03-08T20:07:13.929Z,18.80
2023-03-08T20:09:42.356Z,18.07
2023-03-08T20:12:09.793Z,17.07
2023-03-08T20:14:36.872Z,16.50
2023-03-08T20:17:05.260Z,17.37
2023-03-08T20:19:33.885Z,18.43
2023-03-08T20:22:01.019Z,20.40
2023-03-08T20:24:28.244Z,22.73
2023-03-08T20:26:55.106Z,27.47
2023-03-08T20:29:22.261Z,24.40
2023-03-08T20:31:49.959Z,23.90
2023-03-08T20:34:17.672Z,20.37
2023-03-08T20:36:44.595Z,18.87
2023-03-08T20:39:11.379Z,20.13
2023-03-08T20:41:38.109Z,18.07
2023-03-08T20:44:04.938Z,19.03
2023-03-08T20:46:33.586Z,20.30
2023-03-08T20:49:01.037Z,18.87
2023-03-08T20:51:28.304Z,17.83
2023-03-08T20:53:55.613Z,17.33
2023-03-08T20:56:24.618Z,17.27
2023-03-08T20:58:54.508Z,18.13
2023-03-08T21:01:25.570Z,20.47
2023-03-08T21:03:52.424Z,19.37
2023-03-08T21:06:30.751Z,20.87
2023-03-08T21:08:58.643Z,18.30
2023-03-08T21:11:25.615Z,21.60
2023-03-08T21:13:53.442Z,20.23
2023-03-08T21:16:22.374Z,18.23
2023-03-08T21:18:53.881Z,16.37
2023-03-08T21:21:24.274Z,16.57
2023-03-08T21:23:54.293Z,14.60
2023-03-08T21:26:25.768Z,15.60
2023-03-08T21:28:58.074Z,15.10
2023-03-08T21:31:25.245Z,15.90
2023-03-08T21:33:53.497Z,15.33
2023-03-08T21:36:20.596Z,16.27
2023-03-08T21:38:55.995Z,16.33
2023-03-08T21:41:25.828Z,13.83
2023-03-08T21:43:52.747Z,13.57
2023-03-08T21:46:20.227Z,14.13
2023-03-08T21:48:47.499Z,14.50
2023-03-08T21:51:14.860Z,14.73
2023-03-08T21:53:43.082Z,15.17
2023-03-08T21:56:15.587Z,14.70
2023-03-08T21:58:43.450Z,13.17
2023-03-08T22:01:29.246Z,12.73
2023-03-08T22:03:56.645Z,14.80
2023-03-08T22:06:23.795Z,17.83
2023-03-08T22:08:50.857Z,13.77
2023-03-08T22:11:19.293Z,14.13
2023-03-08T22:13:54.942Z,13.23
2023-03-08T22:16:21.830Z,11.77
2023-03-08T22:18:53.044Z,13.13
2023-03-08T22:21:20.429Z,12.53
2023-03-08T22:23:51.583Z,13.17
2023-03-08T22:26:19.506Z,13.77
2023-03-08T22:28:46.621Z,10.57
2023-03-08T22:31:16.593Z,13.87
2023-03-08T22:33:43.889Z,14.83
2023-03-08T22:36:12.891Z,9.47
2023-03-08T22:38:40.434Z,10.60
2023-03-08T22:41:27.039Z,9.60
2023-03-08T22:43:54.040Z,9.67
2023-03-08T22:46:24.874Z,9.60
2023-03-08T22:48:52.677Z,12.37
2023-03-08T22:51:21.388Z,13.63
2023-03-08T22:53:48.501Z,12.97
2023-03-08T22:56:29.571Z,12.47
2023-03-08T22:58:57.179Z,11.17
2023-03-08T23:01:24.853Z,11.10
2023-03-08T23:03:56.699Z,10.47
2023-03-08T23:06:28.023Z,11.83
2023-03-08T23:08:59.314Z,11.83
2023-03-08T23:11:27.027Z,14.03
2023-03-08T23:13:54.614Z,12.30
2023-03-08T23:16:21.744Z,11.00
2023-03-08T23:18:50.745Z,10.23
2023-03-08T23:21:19.593Z,12.10
2023-03-08T23:27:29.103Z,11.10
2023-03-08T23:29:56.342Z,10.97
2023-03-08T23:32:23.205Z,10.40
2023-03-08T23:34:50.676Z,11.63
2023-03-08T23:37:17.547Z,12.13
2023-03-08T23:39:44.458Z,10.90
2023-03-08T23:42:11.203Z,12.17
2023-03-08T23:44:38.193Z,10.47
2023-03-08T23:47:05.071Z,11.00
2023-03-08T23:49:31.815Z,11.17
2023-03-08T23:51:58.537Z,12.40
2023-03-08T23:54:25.396Z,11.80
2023-03-08T23:56:52.191Z,12.43
2023-03-08T23:59:21.700Z,11.23
